createdAt,value
2023-05-05T00:05:15.931Z,23.2
2023-05-05T00:11:07.096Z,23.1
2023-05-05T00:16:59.099Z,22.9
2023-05-05T00:22:51.862Z,23
2023-05-05T00:28:45.689Z,22.9
2023-05-05T00:34:38.668Z,22.8
2023-05-05T00:40:30.054Z,22.8
2023-05-05T00:46:21.240Z,22.7
2023-05-05T00:52:13.681Z,22.6
2023-05-05T00:58:05.900Z,22.5
2023-05-05T01:03:57.164Z,22.4
2023-05-05T01:09:50.688Z,22.4
2023-05-05T01:15:56.017Z,22.3
2023-05-05T01:21:47.609Z,22.3
2023-05-05T01:27:38.652Z,22.2
2023-05-05T01:33:30.764Z,22.1
2023-05-05T01:39:06.097Z,22.1
2023-05-05T01:44:58.035Z,22.1
2023-05-05T01:50:35.210Z,22.1
2023-05-05T01:56:25.795Z,21.9
2023-05-05T02:02:17.985Z,21.9
2023-05-05T02:08:10.506Z,21.8
2023-05-05T02:14:02.137Z,21.8
2023-05-05T02:19:54.382Z,21.7
2023-05-05T02:25:46.031Z,21.6
2023-05-05T02:31:37.359Z,21.6
2023-05-05T02:37:29.495Z,21.4
2023-05-05T02:43:20.873Z,21.3
2023-05-05T03:00:24.564Z,21.1
2023-05-05T03:06:16.544Z,21
2023-05-05T03:11:53.107Z,21
2023-05-05T03:17:44.943Z,20.9
2023-05-05T03:23:37.989Z,20.9
2023-05-05T03:29:30.521Z,20.8
2023-05-05T03:35:23.128Z,20.8
2023-05-05T03:41:14.298Z,20.7
2023-05-05T03:46:51.337Z,20.7
2023-05-05T03:52:27.772Z,20.6
2023-05-05T03:58:18.785Z,20.6
2023-05-05T04:04:13.549Z,20.6
2023-05-05T04:10:04.766Z,20.6
2023-05-05T04:15:55.611Z,20.6
2023-05-05T04:21:47.295Z,20.5
2023-05-05T04:27:38.650Z,20.4
2023-05-05T04:33:14.483Z,20.4
2023-05-05T04:38:20.079Z,20.4
2023-05-05T04:43:42.082Z,20.4
2023-05-05T04:49:03.216Z,20.4
2023-05-05T04:54:39.659Z,20.4
2023-05-05T05:00:16.001Z,20.3
2023-05-05T05:05:52.701Z,20.3
2023-05-05T05:11:13.704Z,20.3
2023-05-05T05:16:19.184Z,20.3
2023-05-05T05:22:11.183Z,20.3
2023-05-05T05:27:31.608Z,20.3
2023-05-05T05:33:22.502Z,20.3
2023-05-05T05:38:57.981Z,20.3
2023-05-05T05:44:34.198Z,20.2
2023-05-05T05:50:26.229Z,20.2
2023-05-05T05:55:47.080Z,20.2
2023-05-05T06:01:09.002Z,20.2
2023-05-05T06:07:01.886Z,20.2
2023-05-05T06:12:53.327Z,20.1
2023-05-05T06:18:32.468Z,20.1
2023-05-05T06:24:08.711Z,20.1
2023-05-05T06:29:29.258Z,20.1
2023-05-05T06:34:50.364Z,20.1
2023-05-05T06:40:11.773Z,20.1
2023-05-05T06:45:32.534Z,20.1
2023-05-05T06:50:53.755Z,20.1
2023-05-05T06:55:59.794Z,20.1
2023-05-05T07:01:20.662Z,20.1
2023-05-05T07:06:42.136Z,20.1
2023-05-05T07:12:04.177Z,20.1
2023-05-05T07:17:38.017Z,20.1
2023-05-05T07:23:15.616Z,20.1
2023-05-05T07:28:37.187Z,20.1
2023-05-05T07:34:02.504Z,20.1
2023-05-05T07:39:38.778Z,20.1
2023-05-05T07:45:18.665Z,20.1
2023-05-05T07:50:55.837Z,20.1
2023-05-05T07:56:50.188Z,20.1
2023-05-05T08:02:28.145Z,20.1
2023-05-05T08:07:51.492Z,20.1
2023-05-05T08:13:28.195Z,20.1
2023-05-05T08:19:12.046Z,20.1
2023-05-05T08:24:54.685Z,20.1
2023-05-05T08:30:31.882Z,20.1
2023-05-05T08:36:08.984Z,20.1
2023-05-05T08:41:45.617Z,20.1
2023-05-05T08:47:41.452Z,20.1
2023-05-05T08:53:18.941Z,20.1
2023-05-05T08:58:40.411Z,20.1
2023-05-05T09:04:18.097Z,20.1
2023-05-05T09:09:39.585Z,20.1
2023-05-05T09:14:44.998Z,20.1
2023-05-05T09:19:50.631Z,20.1
2023-05-05T09:25:14.604Z,20.1
2023-05-05T09:30:35.388Z,20.1
2023-05-05T09:35:57.160Z,20.1
2023-05-05T09:41:19.606Z,20.1
2023-05-05T09:46:55.477Z,20.1
2023-05-05T09:52:49.333Z,20.1
2023-05-05T09:58:10.574Z,20.1
2023-05-05T10:03:32.157Z,20.1
2023-05-05T10:08:53.724Z,20.1
2023-05-05T10:14:30.804Z,20.1
2023-05-05T10:20:02.952Z,20
2023-05-05T10:25:24.756Z,20.1
2023-05-05T10:30:47.332Z,20.1
2023-05-05T10:37:01.612Z,20.1
2023-05-05T10:42:22.928Z,20.1
2023-05-05T10:47:44.653Z,20.1
2023-05-05T10:53:19.614Z,20.1
2023-05-05T10:59:14.712Z,20.1
2023-05-05T11:04:37.549Z,20.1
2023-05-05T11:09:43.681Z,20.1
2023-05-05T11:15:22.844Z,20.1
2023-05-05T11:20:45.091Z,20.1
2023-05-05T11:26:06.511Z,20.1
2023-05-05T11:31:31.474Z,20.1
2023-05-05T11:36:56.472Z,20.1
2023-05-05T11:42:22.369Z,20.1
2023-05-05T11:48:00.328Z,20.1
2023-05-05T11:53:22.368Z,20.1
2023-05-05T11:59:01.152Z,20.1
2023-05-05T12:04:08.997Z,20
2023-05-05T12:09:49.679Z,20.1
2023-05-05T12:15:27.996Z,20.1
2023-05-05T12:20:35.087Z,20.1
2023-05-05T12:26:26.903Z,20.1
2023-05-05T12:32:05.815Z,20.1
2023-05-05T12:37:27.228Z,20.1
2023-05-05T12:42:48.943Z,20.1
2023-05-05T12:48:11.062Z,20.1
2023-05-05T12:53:50.696Z,20.1
2023-05-05T12:59:43.575Z,20.1
2023-05-05T13:05:07.586Z,20
2023-05-05T13:11:00.665Z,20
2023-05-05T13:16:55.308Z,20
2023-05-05T13:22:48.295Z,20
2023-05-05T13:29:05.490Z,20.1
2023-05-05T13:34:44.443Z,20.1
2023-05-05T13:40:36.478Z,20.1
2023-05-05T13:46:28.610Z,20
2023-05-05T13:52:05.638Z,19.9
2023-05-05T13:58:00.544Z,19.8
2023-05-05T14:03:57.213Z,19.7
2023-05-05T14:09:51.408Z,19.6
2023-05-05T14:15:44.422Z,19.7
2023-05-05T14:21:22.157Z,19.7
2023-05-05T14:27:16.424Z,19.6
2023-05-05T14:33:09.832Z,19.6
2023-05-05T14:39:04.278Z,19.7
2023-05-05T14:44:57.665Z,19.8
2023-05-05T14:50:51.550Z,19.8
2023-05-05T14:56:56.023Z,19.8
2023-05-05T15:08:46.884Z,19.8
2023-05-05T15:14:40.739Z,19.7
2023-05-05T15:20:19.836Z,19.7
2023-05-05T15:25:58.288Z,19.7
2023-05-05T15:31:36.570Z,19.8
2023-05-05T15:37:30.371Z,19.9
2023-05-05T15:43:25.153Z,19.9
2023-05-05T15:49:20.197Z,19.9
2023-05-05T15:55:02.346Z,19.9
2023-05-05T16:00:58.320Z,19.9
2023-05-05T16:06:38.651Z,19.9
2023-05-05T16:12:34.346Z,19.9
2023-05-05T16:18:30.695Z,19.9
2023-05-05T16:24:09.964Z,19.9
2023-05-05T16:29:51.170Z,19.9
2023-05-05T16:35:31.838Z,19.9
2023-05-05T16:41:12.704Z,19.9
2023-05-05T16:47:08.710Z,19.9
2023-05-05T16:53:04.735Z,19.9
2023-05-05T16:58:29.090Z,19.9
2023-05-05T17:03:55.207Z,19.9
2023-05-05T17:09:36.189Z,19.8
2023-05-05T17:15:18.047Z,19.8
2023-05-05T17:21:14.918Z,19.8
2023-05-05T17:27:15.160Z,19.7
2023-05-05T17:33:13.646Z,19.6
2023-05-05T17:39:11.871Z,19.7
2023-05-05T17:45:09.661Z,19.8
2023-05-05T17:51:08.694Z,19.8
2023-05-05T17:57:07.078Z,19.8
2023-05-05T18:03:06.107Z,19.8
2023-05-05T18:09:05.571Z,19.8
2023-05-05T18:15:05.033Z,19.9
2023-05-05T18:21:02.864Z,19.9
2023-05-05T18:27:14.580Z,19.9
2023-05-05T18:33:12.864Z,19.8
2023-05-05T18:39:13.070Z,19.8
2023-05-05T18:45:10.282Z,19.9
2023-05-05T18:51:11.568Z,19.8
2023-05-05T18:57:10.637Z,19.8
2023-05-05T19:03:09.040Z,19.8
2023-05-05T19:09:45.117Z,19.8
2023-05-05T19:15:44.179Z,19.9
2023-05-05T19:21:42.816Z,19.8
2023-05-05T19:27:43.358Z,19.9
2023-05-05T19:33:43.621Z,19.9
2023-05-05T19:39:42.633Z,19.9
2023-05-05T19:45:39.618Z,19.9
2023-05-05T19:51:39.162Z,19.9
2023-05-05T19:57:37.469Z,19.9
2023-05-05T20:03:36.508Z,19.9
2023-05-05T20:09:34.445Z,19.9
2023-05-05T20:15:34.040Z,19.9
2023-05-05T20:21:31.761Z,19.9
2023-05-05T20:27:31.166Z,19.9
2023-05-05T20:33:29.712Z,19.9
2023-05-05T20:39:27.540Z,19.9
2023-05-05T20:45:25.789Z,19.9
2023-05-05T20:51:28.983Z,19.9
2023-05-05T20:57:28.356Z,19.9
2023-05-05T21:03:28.197Z,19.9
2023-05-05T21:09:26.270Z,19.9
2023-05-05T21:15:24.373Z,19.9
2023-05-05T21:21:22.255Z,19.9
2023-05-05T21:27:20.436Z,19.9
2023-05-05T21:33:36.439Z,19.9
2023-05-05T21:39:34.493Z,19.9
2023-05-05T21:45:31.886Z,19.9
2023-05-05T21:51:28.611Z,19.9
2023-05-05T21:57:25.241Z,19.9
2023-05-05T22:03:05.625Z,19.8
2023-05-05T22:09:00.629Z,19.8
2023-05-05T22:14:55.527Z,19.8
2023-05-05T22:20:57.563Z,19.8
2023-05-05T22:26:51.499Z,19.8
2023-05-05T22:32:47.771Z,19.8
2023-05-05T22:38:26.349Z,19.8
2023-05-05T22:44:20.221Z,19.8
2023-05-05T22:49:59.165Z,19.8
2023-05-05T22:55:53.023Z,19.8
2023-05-05T23:01:47.060Z,19.8
2023-05-05T23:07:41.073Z,19.8
2023-05-05T23:13:34.387Z,19.8
2023-05-05T23:19:26.809Z,19.8
2023-05-05T23:25:28.102Z,19.8
2023-05-05T23:31:04.677Z,19.8
2023-05-05T23:36:41.265Z,19.8
2023-05-05T23:42:17.982Z,19.8
2023-05-05T23:47:55.173Z,19.8
2023-05-05T23:53:30.882Z,19.8
2023-05-05T23:59:08.011Z,19.8
